Time;durP1;ratioP1;P1;durP2;ratioP2;P2;SDS_P1;SDS_P2;PMS_P1;PMS_P2;Temp;Humidity;BMP_temperature;BMP_pressure;BME280_temperature;BME280_humidity;BME280_pressure;Samples;Min_cycle;Max_cycle;Signal;HPM_P1;HPM_P2
2022/08/14 00:01:49;;;;;;;5.20;3.55;;;20.10;99.90;;;;;;5203362;28;20573;-61
2022/08/14 00:04:22;;;;;;;5.30;3.15;;;20.00;99.90;;;;;;5211110;28;20031;-61
2022/08/14 00:06:54;;;;;;;4.93;3.10;;;20.00;99.90;;;;;;5193029;28;20039;-60
2022/08/14 00:09:27;;;;;;;4.45;3.00;;;20.00;99.90;;;;;;5195202;28;20045;-61
2022/08/14 00:12:04;;;;;;;5.00;3.50;;;20.00;99.90;;;;;;5212697;28;20039;-62
2022/08/14 00:14:36;;;;;;;6.20;3.65;;;19.90;99.90;;;;;;5190688;28;20025;-61
2022/08/14 00:17:09;;;;;;;5.55;3.03;;;20.00;99.90;;;;;;5212394;28;20020;-60
2022/08/14 00:19:40;;;;;;;6.22;4.30;;;20.00;99.90;;;;;;5207099;28;20020;-60
2022/08/14 00:22:17;;;;;;;4.07;2.97;;;19.90;99.90;;;;;;5199617;28;20517;-60
2022/08/14 00:24:51;;;;;;;4.43;2.90;;;19.90;99.90;;;;;;5218690;28;20021;-60
2022/08/14 00:27:29;;;;;;;5.88;3.47;;;19.90;99.90;;;;;;5217606;28;20028;-60
2022/08/14 00:30:06;;;;;;;7.47;3.55;;;20.00;99.90;;;;;;5221527;28;20162;-60
2022/08/14 00:32:37;;;;;;;4.88;3.60;;;20.10;99.90;;;;;;5200677;28;20032;-60
2022/08/14 00:35:13;;;;;;;5.13;3.50;;;20.20;99.90;;;;;;5210062;28;20028;-62
2022/08/14 00:37:47;;;;;;;4.32;3.10;;;20.20;99.90;;;;;;5226545;28;20024;-61
2022/08/14 00:40:22;;;;;;;4.03;3.40;;;20.30;99.90;;;;;;5183734;28;20032;-63
2022/08/14 00:42:56;;;;;;;5.50;3.40;;;20.30;99.90;;;;;;5197875;28;20050;-62
2022/08/14 00:45:27;;;;;;;4.80;3.33;;;20.40;99.90;;;;;;5181022;28;20497;-61
2022/08/14 00:48:05;;;;;;;6.20;3.33;;;20.40;99.90;;;;;;5179432;28;20056;-61
2022/08/14 00:50:36;;;;;;;5.20;3.60;;;20.40;99.90;;;;;;5197842;28;20036;-60
2022/08/14 00:53:09;;;;;;;4.90;3.05;;;20.50;99.90;;;;;;5212509;28;20024;-63
2022/08/14 00:55:46;;;;;;;4.18;2.85;;;20.50;99.90;;;;;;5216825;28;20023;-61
2022/08/14 00:58:32;;;;;;;7.07;3.40;;;20.50;99.90;;;;;;5201977;28;20307;-61
2022/08/14 01:01:13;;;;;;;4.45;3.40;;;20.60;99.90;;;;;;5239378;28;20350;-61
2022/08/14 01:03:47;;;;;;;4.45;3.25;;;20.60;99.90;;;;;;5219889;28;20228;-61
2022/08/14 01:06:26;;;;;;;4.93;3.38;;;20.50;99.90;;;;;;5189435;28;20047;-61
2022/08/14 01:09:01;;;;;;;4.05;2.88;;;20.50;99.90;;;;;;5179774;28;20040;-63
2022/08/14 01:11:38;;;;;;;4.03;2.95;;;20.50;99.90;;;;;;5188880;28;20319;-60
2022/08/14 01:14:14;;;;;;;4.72;3.22;;;20.50;99.90;;;;;;5190311;28;20041;-61
2022/08/14 01:16:47;;;;;;;6.13;3.17;;;20.40;99.90;;;;;;5210040;28;20037;-61
2022/08/14 01:22:10;;;;;;;4.55;3.10;;;20.40;99.90;;;;;;5217276;28;20021;-61
2022/08/14 01:24:47;;;;;;;5.20;3.03;;;20.40;99.90;;;;;;5199079;28;20310;-61
2022/08/14 01:27:20;;;;;;;4.35;2.83;;;20.40;99.90;;;;;;5198461;28;20417;-61
2022/08/14 01:29:54;;;;;;;4.57;3.58;;;20.50;99.90;;;;;;5217006;28;20039;-61
2022/08/14 01:32:28;;;;;;;4.35;3.13;;;20.40;99.90;;;;;;5196759;28;20110;-61
2022/08/14 01:35:00;;;;;;;4.70;3.08;;;20.40;99.90;;;;;;5206184;28;20032;-61
2022/08/14 01:37:33;;;;;;;5.57;3.30;;;20.40;99.90;;;;;;5220972;28;20334;-60
2022/08/14 01:40:05;;;;;;;4.65;3.33;;;20.40;99.90;;;;;;5227902;28;20028;-60
2022/08/14 01:42:41;;;;;;;7.03;3.50;;;20.40;99.90;;;;;;5215166;28;20252;-61
2022/08/14 01:45:13;;;;;;;4.38;3.25;;;20.40;99.90;;;;;;5217073;28;20123;-62
2022/08/14 01:47:49;;;;;;;4.22;3.20;;;20.40;99.90;;;;;;5182989;28;20028;-61
2022/08/14 01:50:33;;;;;;;4.88;2.75;;;20.30;99.90;;;;;;5198663;28;20032;-60
2022/08/14 01:53:07;;;;;;;4.43;3.10;;;20.30;99.90;;;;;;5208311;28;20183;-61
2022/08/14 01:55:50;;;;;;;4.32;3.13;;;20.30;99.90;;;;;;5199543;28;20020;-61
2022/08/14 01:58:26;;;;;;;4.18;2.85;;;20.30;99.90;;;;;;5214346;28;20310;-61
2022/08/14 02:01:01;;;;;;;7.70;3.78;;;20.30;99.90;;;;;;5228667;28;20376;-61
2022/08/14 02:03:41;;;;;;;4.43;3.17;;;20.30;99.90;;;;;;5233906;28;20214;-60
2022/08/14 02:06:13;;;;;;;5.80;3.58;;;20.30;99.90;;;;;;5189611;28;20041;-61
2022/08/14 02:08:46;;;;;;;4.88;3.40;;;20.30;99.90;;;;;;5216843;28;20024;-62
2022/08/14 02:11:21;;;;;;;3.30;2.87;;;20.30;99.90;;;;;;5219695;28;20033;-61
2022/08/14 02:14:05;;;;;;;5.03;3.65;;;20.30;99.90;;;;;;5198443;28;20210;-61
2022/08/14 02:16:51;;;;;;;5.30;3.53;;;20.30;99.90;;;;;;5222526;28;20213;-62
2022/08/14 02:19:30;;;;;;;3.90;2.92;;;20.20;99.90;;;;;;5223199;28;20108;-61
2022/08/14 02:22:07;;;;;;;4.20;3.25;;;20.20;99.90;;;;;;5217144;28;20338;-61
2022/08/14 02:24:43;;;;;;;5.43;2.97;;;20.20;99.90;;;;;;5190227;28;20031;-62
2022/08/14 02:27:17;;;;;;;4.43;3.30;;;20.30;99.90;;;;;;5216212;28;20020;-61
2022/08/14 02:29:55;;;;;;;3.80;2.88;;;20.20;99.90;;;;;;5216582;28;20035;-61
2022/08/14 02:32:30;;;;;;;4.43;3.10;;;20.20;99.90;;;;;;5214776;28;20031;-62
2022/08/14 02:35:02;;;;;;;;;;;20.20;99.90;;;;;;5207994;28;20032;-62
2022/08/14 02:37:33;;;;;;;4.80;3.85;;;20.20;99.90;;;;;;5190065;28;20117;-61
2022/08/14 02:40:08;;;;;;;6.07;3.58;;;20.20;99.90;;;;;;5168283;28;20311;-61
2022/08/14 02:42:41;;;;;;;3.45;3.00;;;20.20;99.90;;;;;;5215133;28;20338;-62
2022/08/14 02:45:14;;;;;;;4.78;3.22;;;20.30;99.90;;;;;;5191684;28;20044;-62
2022/08/14 02:47:48;;;;;;;5.80;3.83;;;20.30;99.90;;;;;;5206186;28;20571;-62
2022/08/14 02:50:22;;;;;;;4.53;3.25;;;20.20;99.90;;;;;;5170093;28;20211;-61
2022/08/14 02:52:56;;;;;;;4.35;3.30;;;20.20;99.90;;;;;;5217360;28;20024;-61
2022/08/14 02:55:29;;;;;;;5.05;3.35;;;20.20;99.90;;;;;;5214896;28;20340;-62
2022/08/14 02:58:04;;;;;;;5.18;3.60;;;20.20;99.90;;;;;;5215786;28;20025;-62
2022/08/14 03:00:38;;;;;;;4.60;3.17;;;20.20;99.90;;;;;;5210907;28;20055;-61
2022/08/14 03:03:13;;;;;;;6.95;3.83;;;20.20;99.90;;;;;;5176318;28;20029;-63
2022/08/14 03:05:50;;;;;;;3.67;3.15;;;20.20;99.90;;;;;;5208030;28;20047;-61
2022/08/14 03:08:26;;;;;;;4.28;3.42;;;20.10;99.90;;;;;;5200257;28;20029;-62
2022/08/14 03:11:05;;;;;;;4.68;3.33;;;20.10;99.90;;;;;;5200095;28;20045;-64
2022/08/14 03:13:41;;;;;;;5.15;3.30;;;20.10;99.90;;;;;;5184577;28;20068;-61
2022/08/14 03:16:18;;;;;;;5.85;3.80;;;20.10;99.90;;;;;;5207773;28;20203;-61
2022/08/14 03:18:53;;;;;;;5.50;3.95;;;20.10;99.90;;;;;;5190433;28;20033;-62
2022/08/14 03:21:30;;;;;;;5.10;3.22;;;20.00;99.90;;;;;;5197286;28;20339;-63
2022/08/14 03:24:11;;;;;;;5.50;3.47;;;20.10;99.90;;;;;;5176289;28;20318;-61
2022/08/14 03:26:48;;;;;;;6.95;3.92;;;20.00;99.90;;;;;;5210914;28;20334;-62
2022/08/14 03:29:19;;;;;;;5.82;3.72;;;19.90;99.90;;;;;;5193596;28;20030;-61
2022/08/14 03:31:53;;;;;;;5.95;3.53;;;19.90;99.90;;;;;;5193699;28;20043;-61
2022/08/14 03:34:28;;;;;;;5.05;2.95;;;19.90;99.90;;;;;;5219407;28;20453;-61
2022/08/14 03:36:59;;;;;;;3.75;2.92;;;19.90;99.90;;;;;;5222979;28;20035;-61
2022/08/14 03:39:30;;;;;;;3.72;3.28;;;19.80;99.90;;;;;;5195919;28;20038;-61
2022/08/14 03:42:07;;;;;;;5.40;3.65;;;19.80;99.90;;;;;;5194323;28;20222;-61
2022/08/14 03:44:42;;;;;;;3.65;2.95;;;19.80;99.90;;;;;;5219977;28;20037;-61
2022/08/14 03:47:14;;;;;;;4.18;3.40;;;19.90;99.90;;;;;;5187003;28;20035;-61
2022/08/14 03:49:48;;;;;;;4.28;2.90;;;19.90;99.90;;;;;;5217320;28;20246;-61
2022/08/14 03:52:20;;;;;;;4.90;3.50;;;19.90;99.90;;;;;;5219796;28;20033;-60
2022/08/14 03:54:51;;;;;;;4.13;2.90;;;19.90;99.90;;;;;;5200752;28;20313;-60
2022/08/14 03:57:31;;;;;;;5.30;2.75;;;19.90;99.90;;;;;;5240737;28;20163;-59
2022/08/14 04:00:12;;;;;;;6.72;3.38;;;20.00;99.90;;;;;;5221877;28;20367;-62
2022/08/14 04:02:43;;;;;;;4.10;3.15;;;20.00;99.90;;;;;;5221280;28;20233;-61
2022/08/14 04:05:19;;;;;;;5.68;3.65;;;20.00;99.90;;;;;;5190638;28;20362;-62
2022/08/14 04:07:53;;;;;;;4.63;3.33;;;20.00;99.90;;;;;;5194094;28;20194;-61
2022/08/14 04:10:26;;;;;;;6.22;3.38;;;20.00;99.90;;;;;;5200452;28;20318;-62
2022/08/14 04:13:00;;;;;;;4.85;3.60;;;20.00;99.90;;;;;;5211356;28;20041;-62
2022/08/14 04:15:41;;;;;;;4.97;3.58;;;20.00;99.90;;;;;;5193363;28;20108;-61
2022/08/14 04:18:13;;;;;;;5.07;3.90;;;20.00;99.90;;;;;;5199232;28;20255;-62
2022/08/14 04:20:44;;;;;;;4.80;3.10;;;20.00;99.90;;;;;;5200452;28;20025;-61
2022/08/14 04:23:16;;;;;;;3.92;2.80;;;20.10;99.90;;;;;;5201461;28;20035;-61
2022/08/14 04:25:55;;;;;;;3.80;3.40;;;20.10;99.90;;;;;;5201491;28;20318;-60
2022/08/14 04:28:27;;;;;;;4.07;3.22;;;20.10;99.90;;;;;;5208207;28;20055;-61
2022/08/14 04:31:01;;;;;;;5.60;4.13;;;20.10;99.90;;;;;;5192776;28;20041;-61
2022/08/14 04:33:36;;;;;;;6.50;3.92;;;20.10;99.90;;;;;;5219331;28;20340;-61
2022/08/14 04:36:10;;;;;;;4.43;3.55;;;20.10;99.90;;;;;;5218559;28;20021;-61
2022/08/14 04:44:24;;;;;;;4.35;3.60;;;20.00;99.90;;;;;;5218364;28;20625;-61
2022/08/14 04:49:50;;;;;;;5.63;3.60;;;19.90;99.90;;;;;;5196493;28;20029;-60
2022/08/14 04:52:21;;;;;;;6.28;3.53;;;19.90;99.90;;;;;;5204791;28;20024;-62
2022/08/14 04:54:56;;;;;;;5.38;3.90;;;19.90;99.90;;;;;;5184346;28;20033;-60
2022/08/14 04:57:30;;;;;;;3.90;3.17;;;19.80;99.90;;;;;;5199845;28;20302;-61
2022/08/14 05:00:01;;;;;;;5.40;3.28;;;19.80;99.90;;;;;;5200589;28;20033;-61
2022/08/14 05:02:35;;;;;;;5.95;3.15;;;19.80;99.90;;;;;;5218177;28;20329;-60
2022/08/14 05:05:07;;;;;;;4.43;3.47;;;19.80;99.90;;;;;;5210910;28;20268;-62
2022/08/14 05:07:43;;;;;;;4.32;3.45;;;19.90;99.90;;;;;;5201701;28;20324;-61
2022/08/14 05:10:14;;;;;;;5.43;3.40;;;20.00;99.90;;;;;;5219350;28;20035;-61
2022/08/14 05:12:45;;;;;;;4.53;3.33;;;20.00;99.90;;;;;;5208174;28;20325;-61
2022/08/14 05:15:21;;;;;;;4.95;3.33;;;20.00;99.90;;;;;;5226715;28;20028;-62
2022/08/14 05:17:53;;;;;;;3.58;3.25;;;20.10;99.90;;;;;;5207870;28;20033;-61
2022/08/14 05:20:24;;;;;;;3.20;2.67;;;20.20;99.90;;;;;;5200179;28;20029;-62
2022/08/14 05:23:01;;;;;;;6.90;5.32;;;20.30;99.90;;;;;;5218858;28;20664;-62
2022/08/14 05:25:34;;;;;;;5.07;3.83;;;20.30;99.90;;;;;;5202642;28;20264;-62
2022/08/14 05:28:20;;;;;;;5.00;3.63;;;20.20;99.90;;;;;;5200159;28;20055;-62
2022/08/14 05:31:01;;;;;;;6.65;4.18;;;20.40;99.90;;;;;;5180382;28;20052;-63
2022/08/14 05:33:33;;;;;;;4.93;2.85;;;20.60;99.90;;;;;;5217218;28;20321;-62
2022/08/14 05:36:10;;;;;;;6.63;4.68;;;20.80;99.90;;;;;;5214558;28;20025;-61
2022/08/14 05:38:48;;;;;;;6.15;4.15;;;20.90;99.90;;;;;;5187038;28;20096;-62
2022/08/14 05:41:22;;;;;;;5.38;3.78;;;20.80;99.90;;;;;;5200750;28;20017;-62
2022/08/14 05:43:54;;;;;;;;;;;20.70;99.90;;;;;;5214488;28;20230;-62
2022/08/14 05:46:25;;;;;;;4.82;3.83;;;20.60;99.90;;;;;;5184731;28;19908;-61
2022/08/14 05:48:58;;;;;;;5.35;3.72;;;20.80;99.90;;;;;;5203568;28;20100;-61
2022/08/14 05:51:32;;;;;;;4.55;3.55;;;20.70;99.90;;;;;;5203014;28;20026;-60
2022/08/14 05:54:03;;;;;;;5.63;3.87;;;20.70;99.90;;;;;;5200419;28;20025;-61
2022/08/14 05:56:40;;;;;;;4.68;3.22;;;20.70;99.90;;;;;;5199746;28;20035;-61
2022/08/14 05:59:12;;;;;;;5.50;3.75;;;20.90;99.90;;;;;;5206685;28;20033;-61
2022/08/14 06:01:43;;;;;;;4.70;3.92;;;20.80;99.90;;;;;;5206066;28;20024;-61
2022/08/14 06:04:17;;;;;;;4.50;3.83;;;20.90;99.90;;;;;;5218866;28;20028;-61
2022/08/14 06:06:48;;;;;;;4.45;3.70;;;20.90;99.90;;;;;;5188036;28;20048;-61
2022/08/14 06:09:19;;;;;;;6.97;4.03;;;20.90;99.90;;;;;;5227251;28;20028;-60
2022/08/14 06:11:51;;;;;;;4.65;4.10;;;20.80;99.90;;;;;;5240010;28;20025;-60
2022/08/14 06:14:25;;;;;;;5.40;4.25;;;20.70;99.90;;;;;;5223850;28;20101;-61
2022/08/14 06:16:58;;;;;;;8.02;5.53;;;20.60;99.90;;;;;;5187121;28;20039;-60
2022/08/14 06:19:33;;;;;;;4.90;4.00;;;20.50;99.90;;;;;;5222918;28;20017;-60
2022/08/14 06:22:06;;;;;;;6.88;3.72;;;20.60;99.90;;;;;;5200975;28;20039;-62
2022/08/14 06:24:37;;;;;;;5.15;3.30;;;20.80;99.90;;;;;;5223274;28;20059;-60
2022/08/14 06:27:09;;;;;;;5.80;3.58;;;21.20;99.90;;;;;;5211737;28;20021;-60
2022/08/14 06:29:43;;;;;;;4.68;3.65;;;21.40;99.90;;;;;;5219616;28;20214;-61
2022/08/14 06:32:15;;;;;;;;;;;21.40;99.90;;;;;;5219148;28;20029;-60
2022/08/14 06:34:46;;;;;;;5.38;3.78;;;21.40;99.90;;;;;;5216279;28;19907;-61
2022/08/14 06:37:20;;;;;;;4.43;3.58;;;21.60;99.90;;;;;;5217025;28;20314;-60
2022/08/14 06:39:51;;;;;;;5.22;4.43;;;21.60;99.90;;;;;;5216705;28;20043;-62
2022/08/14 06:42:27;;;;;;;4.88;4.22;;;21.60;99.90;;;;;;5220251;28;20210;-61
2022/08/14 06:45:01;;;;;;;10.32;4.25;;;21.60;99.90;;;;;;5219715;28;20029;-61
2022/08/14 06:47:40;;;;;;;7.13;4.07;;;21.80;99.90;;;;;;5219174;28;20029;-61
2022/08/14 06:50:17;;;;;;;4.88;3.95;;;21.60;99.90;;;;;;5218349;28;20037;-61
2022/08/14 06:52:49;;;;;;;7.68;4.30;;;21.60;99.90;;;;;;5218379;28;20037;-61
2022/08/14 06:55:24;;;;;;;6.93;4.40;;;21.50;99.90;;;;;;5213448;28;20519;-62
2022/08/14 06:57:56;;;;;;;6.15;4.40;;;21.60;99.90;;;;;;5208047;28;20033;-62
2022/08/14 07:00:28;;;;;;;6.85;4.72;;;21.70;99.90;;;;;;5198964;28;20033;-62
2022/08/14 07:05:51;;;;;;;8.48;3.90;;;21.50;99.90;;;;;;5188484;28;20051;-61
2022/08/14 07:08:28;;;;;;;6.30;4.10;;;21.60;99.90;;;;;;5198033;28;20344;-61
2022/08/14 07:11:02;;;;;;;9.25;4.97;;;21.70;99.90;;;;;;5215284;28;20376;-61
2022/08/14 07:13:36;;;;;;;5.35;3.97;;;21.60;99.90;;;;;;5214972;28;20043;-61
2022/08/14 07:16:08;;;;;;;6.15;4.18;;;21.80;99.90;;;;;;5208984;28;20031;-62
2022/08/14 07:18:44;;;;;;;5.93;4.30;;;21.80;99.90;;;;;;5198719;28;20035;-61
2022/08/14 07:21:18;;;;;;;4.47;3.95;;;21.60;99.90;;;;;;5216432;28;20028;-62
2022/08/14 07:23:51;;;;;;;6.97;4.70;;;21.70;99.90;;;;;;5216078;28;20207;-61
2022/08/14 07:26:25;;;;;;;7.80;4.73;;;21.60;99.90;;;;;;5214795;28;20029;-60
2022/08/14 07:28:59;;;;;;;5.35;4.25;;;21.70;99.90;;;;;;5232245;28;20210;-60
2022/08/14 07:31:33;;;;;;;6.82;4.13;;;21.90;99.90;;;;;;5200751;28;20381;-61
2022/08/14 07:34:06;;;;;;;5.55;4.32;;;21.90;99.90;;;;;;5236028;28;20329;-60
2022/08/14 07:36:44;;;;;;;6.72;4.78;;;21.80;99.90;;;;;;5215148;28;20032;-59
2022/08/14 07:39:17;;;;;;;6.57;4.40;;;21.60;99.90;;;;;;5215135;28;20035;-61
2022/08/14 07:41:49;;;;;;;5.30;4.10;;;21.60;99.90;;;;;;5215539;28;20032;-61
2022/08/14 07:44:23;;;;;;;5.95;4.40;;;21.70;99.90;;;;;;5223792;28;20042;-61
2022/08/14 07:46:54;;;;;;;5.20;4.00;;;21.70;99.90;;;;;;5227802;28;20369;-61
2022/08/14 07:49:26;;;;;;;6.20;4.38;;;21.90;99.90;;;;;;5234874;28;20041;-62
2022/08/14 07:52:02;;;;;;;6.97;4.28;;;21.90;99.90;;;;;;5225432;28;20035;-61
2022/08/14 07:54:34;;;;;;;5.05;3.85;;;22.20;99.90;;;;;;5235909;28;20021;-62
2022/08/14 07:57:08;;;;;;;8.13;3.80;;;22.80;99.90;;;;;;5216487;28;20042;-62
2022/08/14 07:59:40;;;;;;;4.70;4.10;;;22.60;99.90;;;;;;5230153;28;20021;-61
2022/08/14 08:02:14;;;;;;;4.30;3.70;;;22.50;99.90;;;;;;5227287;28;20198;-61
2022/08/14 08:04:52;;;;;;;4.93;3.75;;;22.20;99.90;;;;;;5220483;28;20353;-61
2022/08/14 08:07:29;;;;;;;4.60;3.60;;;22.10;99.90;;;;;;5218735;28;20105;-60
2022/08/14 08:10:29;;;;;;;4.82;3.95;;;22.20;99.90;;;;;;5222194;28;20320;-60
2022/08/14 08:13:06;;;;;;;5.72;4.28;;;22.30;99.90;;;;;;5215177;28;20039;-61
2022/08/14 08:15:45;;;;;;;4.57;3.65;;;22.60;99.90;;;;;;5204762;28;20029;-62
2022/08/14 08:18:20;;;;;;;6.18;3.55;;;22.60;99.90;;;;;;5235751;28;20018;-62
2022/08/14 08:20:53;;;;;;;4.50;3.67;;;22.50;99.90;;;;;;5204297;28;20322;-61
2022/08/14 08:23:28;;;;;;;5.43;4.32;;;22.20;99.90;;;;;;5209936;28;20031;-62
2022/08/14 08:25:59;;;;;;;6.18;3.28;;;22.10;99.90;;;;;;5239021;28;20392;-61
2022/08/14 08:28:32;;;;;;;4.93;3.67;;;22.50;99.90;;;;;;5222802;28;20183;-62
2022/08/14 08:31:11;;;;;;;4.30;3.53;;;22.80;99.90;;;;;;5227947;28;20354;-62
2022/08/14 08:33:45;;;;;;;5.65;3.92;;;22.80;99.90;;;;;;5226990;28;20024;-60
2022/08/14 08:36:19;;;;;;;6.93;3.95;;;23.10;99.90;;;;;;5234458;28;20313;-61
2022/08/14 08:38:59;;;;;;;6.20;3.80;;;23.40;99.90;;;;;;5217711;28;20112;-63
2022/08/14 08:41:46;;;;;;;5.13;3.88;;;23.80;99.90;;;;;;5217823;28;20023;-60
2022/08/14 08:44:22;;;;;;;5.10;3.78;;;23.80;99.90;;;;;;5233951;28;20370;-60
2022/08/14 08:46:58;;;;;;;4.15;3.40;;;23.70;99.90;;;;;;5205321;28;20246;-61
2022/08/14 08:49:44;;;;;;;4.45;3.28;;;23.50;99.90;;;;;;5235732;28;20046;-60
2022/08/14 08:52:15;;;;;;;4.13;3.30;;;23.50;99.90;;;;;;5184135;28;20260;-61
2022/08/14 08:54:53;;;;;;;5.43;3.60;;;24.00;99.90;;;;;;5219626;28;20044;-62
2022/08/14 08:57:32;;;;;;;4.43;3.15;;;23.90;99.90;;;;;;5218835;28;20055;-61
2022/08/14 09:00:19;;;;;;;4.85;3.58;;;24.10;99.90;;;;;;5219323;28;20021;-61
2022/08/14 09:03:02;;;;;;;7.57;4.72;;;23.80;99.90;;;;;;5234336;28;20023;-61
2022/08/14 09:05:37;;;;;;;4.30;3.88;;;23.80;99.90;;;;;;5190064;28;20066;-61
2022/08/14 09:08:17;;;;;;;5.13;3.63;;;23.70;99.90;;;;;;5231711;28;20039;-61
2022/08/14 09:10:53;;;;;;;5.63;4.22;;;23.80;99.90;;;;;;5224089;28;20025;-61
2022/08/14 09:13:26;;;;;;;4.57;3.92;;;23.80;99.90;;;;;;5196642;28;20044;-61
2022/08/14 09:16:03;;;;;;;4.45;3.60;;;23.80;99.90;;;;;;5199919;28;20028;-62
2022/08/14 09:18:39;;;;;;;4.80;3.42;;;23.80;99.90;;;;;;5200083;28;20035;-61
2022/08/14 09:21:13;;;;;;;5.03;4.07;;;23.50;99.90;;;;;;5218478;28;20013;-62
2022/08/14 09:23:47;;;;;;;6.20;4.00;;;24.10;99.90;;;;;;5218338;28;20017;-62
2022/08/14 09:26:20;;;;;;;5.82;3.13;;;24.40;99.90;;;;;;5218336;28;20029;-62
2022/08/14 09:28:52;;;;;;;4.67;3.47;;;25.20;99.90;;;;;;5228739;28;20035;-60
2022/08/14 09:31:27;;;;;;;6.40;4.40;;;25.20;99.90;;;;;;5212520;28;20463;-61
2022/08/14 09:34:19;;;;;;;5.57;3.67;;;25.00;99.90;;;;;;5229995;28;20042;-61
2022/08/14 09:37:07;;;;;;;5.80;3.85;;;24.40;99.90;;;;;;5219344;28;20029;-61
2022/08/14 09:40:10;;;;;;;5.22;3.55;;;24.40;99.90;;;;;;5216128;28;20041;-61
2022/08/14 09:43:14;;;;;;;6.40;4.15;;;24.20;99.90;;;;;;5179228;28;20025;-63
2022/08/14 09:45:49;;;;;;;4.45;3.60;;;24.50;99.90;;;;;;5223802;28;20278;-61
2022/08/14 09:48:22;;;;;;;5.55;4.03;;;24.30;99.90;;;;;;5235646;28;20027;-60
2022/08/14 09:50:58;;;;;;;4.97;4.10;;;24.50;99.90;;;;;;5230169;28;20021;-61
2022/08/14 09:53:40;;;;;;;5.07;3.78;;;24.70;99.90;;;;;;5197987;28;20032;-61
2022/08/14 09:56:14;;;;;;;5.75;3.97;;;24.40;99.90;;;;;;5205771;28;20017;-61
2022/08/14 09:58:46;;;;;;;9.70;3.95;;;24.70;99.90;;;;;;5199394;28;20031;-61
2022/08/14 10:01:24;;;;;;;4.82;3.70;;;24.60;99.90;;;;;;5181779;28;20322;-61
2022/08/14 10:03:59;;;;;;;6.57;4.43;;;24.50;99.90;;;;;;5188529;28;20051;-62
2022/08/14 10:06:30;;;;;;;7.20;4.25;;;24.80;99.90;;;;;;5187840;28;20259;-62
2022/08/14 10:09:01;;;;;;;4.43;3.85;;;24.70;99.90;;;;;;5224204;28;20029;-61
2022/08/14 10:11:36;;;;;;;7.20;3.88;;;25.30;99.90;;;;;;5205067;28;20061;-61
2022/08/14 10:14:20;;;;;;;;;;;25.20;99.90;;;;;;5210609;28;20028;-60
2022/08/14 10:16:56;;;;;;;4.85;3.50;;;25.10;99.90;;;;;;5210555;28;19911;-61
2022/08/14 10:19:28;;;;;;;5.63;3.70;;;25.50;99.90;;;;;;5217255;28;20020;-62
2022/08/14 10:22:14;;;;;;;5.25;3.85;;;25.20;99.90;;;;;;5222332;28;20028;-62
2022/08/14 10:24:45;;;;;;;5.75;4.38;;;25.20;99.90;;;;;;5217619;28;20026;-62
2022/08/14 10:27:27;;;;;;;4.93;3.67;;;25.20;99.90;;;;;;5221668;28;20031;-61
2022/08/14 10:29:59;;;;;;;5.63;4.07;;;25.40;99.90;;;;;;5199958;28;20040;-62
2022/08/14 10:32:46;;;;;;;4.78;3.63;;;25.90;99.90;;;;;;5227627;28;20017;-61
2022/08/14 10:35:18;;;;;;;5.05;3.60;;;26.80;99.90;;;;;;5220691;28;20013;-61
2022/08/14 10:37:51;;;;;;;4.88;3.65;;;27.40;99.90;;;;;;5232059;28;20195;-61
2022/08/14 10:40:33;;;;;;;5.45;4.20;;;28.60;99.90;;;;;;5220898;28;20333;-61
2022/08/14 10:43:21;;;;;;;5.20;3.83;;;28.90;99.90;;;;;;5174967;28;20033;-61
2022/08/14 10:45:59;;;;;;;5.35;3.50;;;28.60;99.90;;;;;;5237122;28;20046;-61
2022/08/14 10:48:36;;;;;;;4.88;3.67;;;28.50;99.90;;;;;;5229748;28;20032;-62
2022/08/14 10:51:10;;;;;;;4.93;3.63;;;29.00;99.90;;;;;;5199404;28;20338;-62
2022/08/14 10:53:44;;;;;;;5.22;3.35;;;28.50;99.90;;;;;;5209583;28;20119;-61
2022/08/14 10:56:15;;;;;;;5.18;4.00;;;27.30;99.90;;;;;;5226200;28;20038;-62
2022/08/14 10:58:47;;;;;;;4.95;3.72;;;26.90;99.90;;;;;;5217291;28;20013;-62
2022/08/14 11:01:30;;;;;;;4.63;3.40;;;26.20;99.90;;;;;;5211699;28;20039;-61
2022/08/14 11:04:07;;;;;;;4.93;3.72;;;26.70;99.90;;;;;;5217398;28;20034;-61
2022/08/14 11:06:38;;;;;;;5.82;3.90;;;26.70;99.90;;;;;;5206169;28;20323;-60
2022/08/14 11:09:13;;;;;;;5.25;3.38;;;26.40;99.90;;;;;;5235176;28;20025;-60
2022/08/14 11:11:55;;;;;;;5.88;4.03;;;26.50;99.90;;;;;;5238264;28;20228;-61
2022/08/14 11:14:30;;;;;;;6.72;4.07;;;26.50;99.90;;;;;;5217287;28;20028;-61
2022/08/14 11:17:04;;;;;;;5.97;3.97;;;26.40;99.90;;;;;;5216830;28;20020;-61
2022/08/14 11:19:45;;;;;;;4.38;3.40;;;26.50;99.90;;;;;;5216909;28;20037;-61
2022/08/14 11:22:26;;;;;;;5.22;3.50;;;27.10;99.90;;;;;;5220324;28;20029;-61
2022/08/14 11:25:03;;;;;;;4.40;3.47;;;27.40;99.90;;;;;;5200238;28;20043;-62
2022/08/14 11:27:34;;;;;;;5.03;3.65;;;27.70;99.90;;;;;;5199818;28;20242;-61
2022/08/14 11:30:12;;;;;;;5.40;3.65;;;28.60;99.90;;;;;;5219184;28;20465;-61
2022/08/14 11:32:45;;;;;;;5.35;3.90;;;28.30;99.90;;;;;;5217453;28;20028;-61
2022/08/14 11:35:21;;;;;;;4.13;3.72;;;28.70;99.90;;;;;;5220387;28;20012;-60
2022/08/14 11:37:58;;;;;;;4.60;3.33;;;28.20;99.90;;;;;;5216350;28;20020;-63
2022/08/14 11:40:37;;;;;;;6.38;3.47;;;28.20;99.90;;;;;;5219025;28;20052;-62
2022/08/14 11:43:12;;;;;;;5.88;4.00;;;28.70;99.90;;;;;;5202825;28;20340;-62
2022/08/14 11:45:52;;;;;;;;;;;28.60;99.90;;;;;;5215448;28;20025;-61
2022/08/14 11:48:28;;;;;;;4.80;3.63;;;28.90;99.90;;;;;;5211628;28;19901;-60
2022/08/14 11:50:59;;;;;;;5.28;3.22;;;29.20;99.90;;;;;;5217238;28;20207;-62
2022/08/14 11:53:33;;;;;;;4.68;3.88;;;28.70;99.90;;;;;;5199865;28;20037;-62
2022/08/14 11:56:05;;;;;;;7.47;3.40;;;29.00;99.90;;;;;;5217028;28;20041;-62
2022/08/14 11:58:44;;;;;;;7.00;4.00;;;28.40;99.90;;;;;;5201826;28;20017;-62
2022/08/14 12:01:15;;;;;;;4.95;3.80;;;29.30;99.90;;;;;;5202081;28;20027;-62
2022/08/14 12:03:49;;;;;;;3.28;2.92;;;29.70;99.90;;;;;;5204322;28;20023;-61
2022/08/14 12:06:23;;;;;;;4.82;3.35;;;28.90;99.90;;;;;;5198841;28;20053;-61
2022/08/14 12:08:59;;;;;;;;;;;29.00;99.90;;;;;;5206220;28;20032;-60
2022/08/14 12:11:38;;;;;;;4.05;3.08;;;29.60;99.90;;;;;;5202678;28;19912;-62
2022/08/14 12:14:14;;;;;;;4.45;3.20;;;30.20;99.90;;;;;;5197687;28;20061;-61
2022/08/14 12:17:06;;;;;;;5.93;3.65;;;31.80;99.90;;;;;;5223064;28;20275;-62
2022/08/14 12:19:54;;;;;;;4.00;3.40;;;32.00;99.90;;;;;;5219818;28;20218;-63
2022/08/14 12:22:43;;;;;;;4.88;3.50;;;31.30;99.90;;;;;;5217552;28;20048;-61
2022/08/14 12:25:22;;;;;;;4.97;3.70;;;31.00;99.90;;;;;;5204368;28;20013;-63
2022/08/14 12:27:58;;;;;;;4.43;3.65;;;30.70;99.90;;;;;;5203612;28;20325;-63
2022/08/14 12:30:42;;;;;;;3.85;3.25;;;31.30;99.90;;;;;;5201589;28;20059;-62
2022/08/14 12:33:26;;;;;;;3.88;3.33;;;32.40;99.90;;;;;;5220162;28;20025;-62
2022/08/14 12:36:05;;;;;;;3.72;3.17;;;33.50;99.90;;;;;;5220814;28;20239;-61
2022/08/14 12:38:41;;;;;;;4.53;3.47;;;33.50;99.90;;;;;;5220390;28;20020;-62
2022/08/14 12:41:29;;;;;;;3.92;3.17;;;32.50;99.90;;;;;;5220476;28;20301;-60
2022/08/14 12:44:08;;;;;;;4.68;3.47;;;31.40;99.90;;;;;;5198492;28;20031;-61
2022/08/14 12:46:50;;;;;;;4.20;2.95;;;31.80;99.90;;;;;;5217309;28;20025;-63
2022/08/14 12:49:23;;;;;;;4.30;3.30;;;32.00;99.90;;;;;;5220142;28;20027;-62
2022/08/14 12:51:57;;;;;;;5.72;3.30;;;32.30;99.90;;;;;;5202980;28;20032;-62
2022/08/14 12:54:29;;;;;;;3.17;2.85;;;33.50;99.90;;;;;;5201441;28;20035;-62
2022/08/14 12:57:12;;;;;;;4.47;3.15;;;32.00;99.90;;;;;;5204592;28;20245;-61
2022/08/14 12:59:47;;;;;;;3.95;3.10;;;29.80;99.90;;;;;;5220873;28;20217;-61
2022/08/14 13:02:29;;;;;;;4.85;3.13;;;29.40;99.90;;;;;;5220447;28;20025;-61
2022/08/14 13:05:04;;;;;;;6.78;3.30;;;29.80;99.90;;;;;;5217912;28;20056;-63
2022/08/14 13:07:50;;;;;;;7.03;2.88;;;29.20;99.90;;;;;;5211694;28;20027;-62
2022/08/14 13:10:23;;;;;;;4.40;3.35;;;28.40;99.90;;;;;;5186052;28;20043;-63
2022/08/14 13:12:57;;;;;;;4.27;3.00;;;28.40;99.90;;;;;;5220497;28;20320;-63
2022/08/14 13:15:32;;;;;;;3.40;2.78;;;30.10;99.90;;;;;;5236324;28;20036;-62
2022/08/14 13:18:10;;;;;;;3.55;2.95;;;32.70;99.90;;;;;;5222941;28;20033;-62
2022/08/14 13:20:44;;;;;;;2.95;2.67;;;32.10;99.90;;;;;;5210781;28;20302;-62
2022/08/14 13:23:20;;;;;;;2.60;2.30;;;32.90;99.90;;;;;;5218548;28;20400;-61
2022/08/14 13:25:54;;;;;;;3.67;2.65;;;33.50;99.90;;;;;;5207889;28;20021;-62
2022/08/14 13:28:29;;;;;;;2.65;2.20;;;33.70;99.90;;;;;;5201934;28;20040;-64
2022/08/14 13:31:03;;;;;;;3.70;2.90;;;33.80;99.90;;;;;;5228462;28;20017;-62
2022/08/14 13:33:35;;;;;;;3.47;2.78;;;34.80;99.90;;;;;;5231675;28;20039;-61
2022/08/14 13:36:12;;;;;;;3.75;2.78;;;34.00;99.90;;;;;;5233251;28;20035;-62
2022/08/14 13:38:48;;;;;;;4.40;3.55;;;34.40;99.90;;;;;;5227651;28;20031;-62
2022/08/14 13:41:32;;;;;;;3.15;2.65;;;33.40;99.90;;;;;;5204568;28;20016;-62
2022/08/14 13:44:03;;;;;;;4.38;2.95;;;34.80;99.90;;;;;;5224498;28;20024;-64
2022/08/14 13:46:34;;;;;;;4.10;3.40;;;35.30;99.90;;;;;;5202045;28;20035;-63